METAR Data
IDs: Format: Raw Decoded Include TAF

Data at: 2050 UTC 18 Apr 2021

UACC 182030Z 04010MPS 9999 BKN014 BKN033CB M02/M05 Q1018 REFZRA R04/15//65 TEMPO 01014G19MPS 3100 -FZRA SCT008 BKN015CB RMK QFE732/0976